createdAt,value
2019-01-08T00:00:14.104Z,13.20
2019-01-08T00:02:50.514Z,15.23
2019-01-08T00:05:26.124Z,13.22
2019-01-08T00:08:06.514Z,14.43
2019-01-08T00:14:02.178Z,15.60
2019-01-08T00:16:56.398Z,11.73
2019-01-08T00:23:03.661Z,13.60
2019-01-08T00:25:41.250Z,14.90
2019-01-08T00:28:29.385Z,13.37
2019-01-08T00:31:01.196Z,12.80
2019-01-08T00:33:31.575Z,12.95
2019-01-08T00:36:08.318Z,12.83
2019-01-08T00:38:42.411Z,12.67
2019-01-08T00:41:29.386Z,11.37
2019-01-08T00:47:29.785Z,12.60
2019-01-08T00:50:03.862Z,11.90
2019-01-08T00:52:37.432Z,12.80
2019-01-08T00:55:26.757Z,12.37
2019-01-08T00:58:04.050Z,12.60
2019-01-08T01:04:19.941Z,12.00
2019-01-08T01:07:17.847Z,14.03
2019-01-08T01:10:00.633Z,14.37
2019-01-08T01:12:34.901Z,16.13
2019-01-08T01:15:32.041Z,13.53
2019-01-08T01:18:05.815Z,12.40
2019-01-08T01:20:43.682Z,14.60
2019-01-08T01:23:29.513Z,12.77
2019-01-08T01:27:02.626Z,11.20
2019-01-08T01:29:52.458Z,15.20
2019-01-08T01:33:03.998Z,12.77
2019-01-08T01:36:10.570Z,12.80
2019-01-08T01:42:52.676Z,13.33
2019-01-08T01:44:46.858Z,13.80
2019-01-08T01:47:41.402Z,11.03
2019-01-08T01:53:19.226Z,11.10
2019-01-08T01:55:53.044Z,11.73
2019-01-08T01:58:23.890Z,10.27
2019-01-08T02:01:04.354Z,9.30
2019-01-08T02:04:08.585Z,10.73
2019-01-08T02:06:53.944Z,9.00
2019-01-08T02:09:29.145Z,8.80
2019-01-08T02:12:06.982Z,9.03
2019-01-08T02:14:53.755Z,7.50
2019-01-08T02:17:41.806Z,9.20
2019-01-08T02:20:25.683Z,7.80
2019-01-08T02:23:21.075Z,8.40
2019-01-08T02:25:52.299Z,7.30
2019-01-08T02:28:26.109Z,9.40
2019-01-08T02:31:03.253Z,7.73
2019-01-08T02:33:53.020Z,9.77
2019-01-08T02:36:30.210Z,9.68
2019-01-08T02:39:16.390Z,8.23
2019-01-08T02:41:47.772Z,9.10
2019-01-08T02:44:26.699Z,8.83
2019-01-08T02:47:16.222Z,10.00
2019-01-08T02:50:26.114Z,9.13
2019-01-08T02:53:10.142Z,8.87
2019-01-08T02:56:04.550Z,7.40
2019-01-08T02:58:38.710Z,8.63
2019-01-08T03:01:09.172Z,6.30
2019-01-08T03:03:39.621Z,5.00
2019-01-08T03:06:11.213Z,5.47
2019-01-08T03:08:56.349Z,4.37
2019-01-08T03:11:54.680Z,4.20
2019-01-08T03:14:41.998Z,4.20
2019-01-08T03:17:15.448Z,5.13
2019-01-08T03:19:46.923Z,4.40
2019-01-08T03:22:17.605Z,4.00
2019-01-08T03:24:58.543Z,4.30
2019-01-08T03:27:42.978Z,4.60
2019-01-08T03:30:28.153Z,4.23
2019-01-08T03:32:58.639Z,4.50
2019-01-08T03:35:54.769Z,5.03
2019-01-08T03:38:25.573Z,4.53
2019-01-08T03:41:02.897Z,4.00
2019-01-08T03:43:45.045Z,5.00
2019-01-08T03:49:43.887Z,4.53
2019-01-08T03:52:06.895Z,3.90
2019-01-08T03:54:37.888Z,4.57
2019-01-08T03:57:11.339Z,3.70
2019-01-08T04:00:01.076Z,3.97
2019-01-08T04:02:39.333Z,4.20
2019-01-08T04:05:34.658Z,4.30
2019-01-08T04:08:19.687Z,4.20
2019-01-08T04:11:02.360Z,4.70
2019-01-08T04:13:43.239Z,4.90
2019-01-08T04:19:58.795Z,3.90
2019-01-08T04:23:05.674Z,4.40
2019-01-08T04:25:38.384Z,3.93
2019-01-08T04:28:16.118Z,4.10
2019-01-08T04:30:57.468Z,4.47
2019-01-08T04:34:07.504Z,4.10
2019-01-08T04:37:03.642Z,4.57
2019-01-08T04:39:33.986Z,4.40
2019-01-08T04:42:08.469Z,4.40
2019-01-08T04:44:42.142Z,4.80
2019-01-08T04:47:34.724Z,4.93
2019-01-08T04:50:57.136Z,4.60
2019-01-08T04:53:32.124Z,4.10
2019-01-08T04:56:04.395Z,4.30
2019-01-08T04:58:45.243Z,4.00
2019-01-08T05:01:47.601Z,4.43
2019-01-08T05:04:56.057Z,4.53
2019-01-08T05:08:00.115Z,4.27
2019-01-08T05:10:58.969Z,4.57
2019-01-08T05:13:42.339Z,4.30
2019-01-08T05:16:25.119Z,4.77
2019-01-08T05:19:03.984Z,4.93
2019-01-08T05:22:05.749Z,6.87
2019-01-08T05:28:39.059Z,4.80
2019-01-08T05:32:28.834Z,4.47
2019-01-08T05:34:12.648Z,4.47
2019-01-08T05:40:33.061Z,4.63
2019-01-08T05:46:45.524Z,4.47
2019-01-08T05:49:23.906Z,4.97
2019-01-08T05:51:56.253Z,4.70
2019-01-08T05:55:00.594Z,4.60
2019-01-08T05:57:32.733Z,4.47
2019-01-08T06:00:16.147Z,4.53
2019-01-08T06:02:48.728Z,4.87
2019-01-08T06:05:36.470Z,4.63
2019-01-08T06:11:21.217Z,4.63
2019-01-08T06:14:04.772Z,3.97
2019-01-08T06:17:06.289Z,4.40
2019-01-08T06:19:43.599Z,4.77
2019-01-08T06:23:10.913Z,4.90
2019-01-08T06:26:34.157Z,4.00
2019-01-08T06:30:09.140Z,4.93
2019-01-08T06:33:29.089Z,4.40
2019-01-08T06:36:00.567Z,4.80
2019-01-08T06:38:52.902Z,4.43
2019-01-08T06:41:50.975Z,5.63
2019-01-08T06:44:55.971Z,6.53
2019-01-08T07:18:50.234Z,6.03
2019-01-08T07:21:21.179Z,4.67
2019-01-08T07:24:04.606Z,4.73
2019-01-08T07:26:40.232Z,7.03
2019-01-08T07:29:10.346Z,5.87
2019-01-08T07:36:18.895Z,6.70
2019-01-08T08:43:05.002Z,6.57
2019-01-08T08:45:35.812Z,8.13
2019-01-08T08:48:06.443Z,9.15
2019-01-08T08:50:39.991Z,9.53
2019-01-08T08:53:25.561Z,7.90
2019-01-08T08:56:34.769Z,8.47
2019-01-08T08:59:07.751Z,6.87
2019-01-08T09:01:45.192Z,10.80
2019-01-08T09:05:04.618Z,8.50
2019-01-08T09:07:37.503Z,5.87
2019-01-08T09:10:17.228Z,8.00
2019-01-08T09:12:57.930Z,6.70
2019-01-08T09:16:08.479Z,7.83
2019-01-08T09:18:41.084Z,6.47
2019-01-08T09:21:14.909Z,8.33
2019-01-08T09:23:48.113Z,7.00
2019-01-08T09:26:23.378Z,6.73
2019-01-08T09:29:08.812Z,10.67
2019-01-08T09:31:45.936Z,15.28
2019-01-08T09:34:16.715Z,7.60
2019-01-08T09:36:51.528Z,8.90
2019-01-08T09:39:21.701Z,8.87
2019-01-08T09:41:52.373Z,9.73
2019-01-08T09:44:22.490Z,10.17
2019-01-08T09:47:08.849Z,9.80
2019-01-08T09:49:40.974Z,8.73
2019-01-08T09:52:28.697Z,8.37
2019-01-08T09:55:01.660Z,9.90
2019-01-08T09:57:44.354Z,9.23
2019-01-08T10:00:14.664Z,7.00
2019-01-08T10:02:45.919Z,11.80
2019-01-08T10:05:16.637Z,8.47
2019-01-08T10:07:57.678Z,10.20
2019-01-08T10:10:28.082Z,13.73
2019-01-08T10:13:03.449Z,10.20
2019-01-08T10:15:34.094Z,9.73
2019-01-08T10:18:26.249Z,10.60
2019-01-08T10:20:56.831Z,8.77
2019-01-08T11:11:16.480Z,8.57
2019-01-08T12:00:24.416Z,8.70
2019-01-08T12:07:31.122Z,6.57
2019-01-08T12:09:56.587Z,6.10
2019-01-08T12:12:27.663Z,6.47
2019-01-08T12:15:00.785Z,7.07
2019-01-08T12:17:34.426Z,7.53
2019-01-08T12:20:06.864Z,10.83
2019-01-08T12:22:40.973Z,13.10
2019-01-08T12:25:10.992Z,6.50
2019-01-08T12:27:41.428Z,9.50
2019-01-08T12:30:12.748Z,11.07
2019-01-08T12:32:48.747Z,12.07
2019-01-08T12:35:19.220Z,7.40
2019-01-08T12:38:24.187Z,10.93
2019-01-08T12:41:13.249Z,8.53
2019-01-08T12:43:34.851Z,8.50
2019-01-08T12:46:05.306Z,7.13
2019-01-08T12:48:42.326Z,10.90
2019-01-08T12:51:17.656Z,6.87
2019-01-08T12:53:51.968Z,9.40
2019-01-08T12:56:22.028Z,8.93
2019-01-08T12:58:52.840Z,10.90
2019-01-08T13:01:23.142Z,10.10
2019-01-08T13:03:53.120Z,7.60
2019-01-08T13:06:24.283Z,11.73
2019-01-08T13:08:54.688Z,6.60
2019-01-08T13:11:27.677Z,11.63
2019-01-08T13:13:57.693Z,7.93
2019-01-08T13:16:27.997Z,7.97
2019-01-08T13:19:25.001Z,10.93
2019-01-08T13:22:01.108Z,11.80
2019-01-08T13:24:40.159Z,9.70
2019-01-08T13:30:18.071Z,7.60
2019-01-08T13:33:10.228Z,10.00
2019-01-08T13:35:50.138Z,10.60
2019-01-08T13:38:19.870Z,11.63
2019-01-08T13:41:13.466Z,14.17
2019-01-08T13:43:50.105Z,9.40
2019-01-08T13:46:27.256Z,12.30
2019-01-08T13:48:58.211Z,12.17
2019-01-08T13:51:28.250Z,25.23
2019-01-08T13:54:01.476Z,12.73
2019-01-08T13:56:31.853Z,11.63
2019-01-08T13:59:02.180Z,10.40
2019-01-08T14:01:32.210Z,10.60
2019-01-08T14:04:03.683Z,10.10
2019-01-08T14:06:34.171Z,9.70
2019-01-08T14:09:09.506Z,12.90
2019-01-08T14:11:42.081Z,8.30
2019-01-08T14:14:13.842Z,15.33
2019-01-08T14:16:44.036Z,10.13
2019-01-08T14:19:18.856Z,9.87
2019-01-08T14:21:49.563Z,9.47
2019-01-08T14:24:24.349Z,8.88
2019-01-08T14:26:56.616Z,8.43
2019-01-08T14:29:39.261Z,6.13
2019-01-08T14:32:12.096Z,12.17
2019-01-08T14:34:42.227Z,12.07
2019-01-08T14:37:12.377Z,12.60
2019-01-08T14:39:50.973Z,8.77
2019-01-08T14:42:30.139Z,9.03
2019-01-08T14:45:07.699Z,12.20
2019-01-08T14:47:37.705Z,7.10
2019-01-08T14:50:08.710Z,10.70
2019-01-08T14:52:39.226Z,8.57
2019-01-08T14:55:10.318Z,9.37
2019-01-08T14:57:41.407Z,11.00
2019-01-08T15:00:11.984Z,13.63
2019-01-08T15:02:49.492Z,5.83
2019-01-08T15:05:17.819Z,6.27
2019-01-08T15:07:48.081Z,6.70
2019-01-08T15:10:21.452Z,8.77
2019-01-08T15:12:53.989Z,9.00
2019-01-08T15:15:24.128Z,6.83
2019-01-08T15:18:13.771Z,7.40
2019-01-08T15:26:50.797Z,6.33
2019-01-08T15:29:23.398Z,7.17
2019-01-08T15:31:53.283Z,9.30
2019-01-08T15:34:23.472Z,6.10
2019-01-08T15:36:53.649Z,8.53
2019-01-08T15:39:24.186Z,6.57
2019-01-08T15:41:54.421Z,8.10
2019-01-08T15:44:24.528Z,6.00
2019-01-08T15:46:54.312Z,5.70
2019-01-08T15:49:24.414Z,6.43
2019-01-08T15:51:54.422Z,9.37
2019-01-08T15:54:25.588Z,6.70
2019-01-08T15:56:55.304Z,6.15
2019-01-08T15:59:25.187Z,9.37
2019-01-08T16:01:54.892Z,6.67
2019-01-08T16:04:24.863Z,7.87
2019-01-08T16:06:54.413Z,9.50
2019-01-08T16:09:24.678Z,10.33
2019-01-08T16:11:55.271Z,10.87
2019-01-08T16:14:25.562Z,8.60
2019-01-08T16:17:03.493Z,9.90
2019-01-08T16:19:37.492Z,11.77
2019-01-08T16:22:12.878Z,7.57
2019-01-08T16:24:44.137Z,8.80
2019-01-08T16:27:15.895Z,7.80
2019-01-08T16:29:46.206Z,9.17
2019-01-08T16:32:15.850Z,8.23
2019-01-08T16:34:45.888Z,7.63
2019-01-08T16:37:16.130Z,8.60
2019-01-08T16:39:48.083Z,7.73
2019-01-08T16:42:18.649Z,8.40
2019-01-08T16:44:52.765Z,7.03
2019-01-08T16:47:23.076Z,7.10
2019-01-08T16:49:52.617Z,6.90
2019-01-08T16:52:23.614Z,6.00
2019-01-08T16:54:53.194Z,6.00
2019-01-08T16:57:22.771Z,9.80
2019-01-08T16:59:53.202Z,6.37
2019-01-08T17:02:23.001Z,8.30
2019-01-08T17:04:53.116Z,6.00
2019-01-08T17:07:24.351Z,6.10
2019-01-08T17:10:04.251Z,7.10
2019-01-08T17:35:01.135Z,8.87
2019-01-08T17:42:20.972Z,9.30
2019-01-08T17:44:57.389Z,8.90
2019-01-08T17:48:12.888Z,10.03
2019-01-08T17:51:15.037Z,9.27
2019-01-08T17:57:13.046Z,9.60
2019-01-08T17:59:57.942Z,7.70
2019-01-08T18:02:29.129Z,11.70
2019-01-08T18:05:02.200Z,9.37
2019-01-08T18:07:46.591Z,7.72
2019-01-08T18:10:35.520Z,9.33
2019-01-08T18:13:11.456Z,9.53
2019-01-08T18:15:43.521Z,9.67
2019-01-08T18:18:28.121Z,18.60
2019-01-08T18:21:00.992Z,12.27
2019-01-08T18:27:04.492Z,15.47
2019-01-08T18:27:23.994Z,10.00
2019-01-08T18:31:01.482Z,10.67
2019-01-08T18:36:36.425Z,13.40
2019-01-08T18:39:42.738Z,8.80
2019-01-08T18:43:18.822Z,13.83
2019-01-08T18:46:13.292Z,7.60
2019-01-08T18:49:00.911Z,9.03
2019-01-08T18:52:21.221Z,10.50
2019-01-08T18:55:19.181Z,9.10
2019-01-08T18:57:52.975Z,8.97
2019-01-08T19:01:06.881Z,12.30
2019-01-08T19:04:26.836Z,12.47
2019-01-08T19:08:02.953Z,7.90
2019-01-08T19:10:43.956Z,10.10
2019-01-08T19:13:44.625Z,9.17
2019-01-08T19:16:47.632Z,10.90
2019-01-08T19:19:17.976Z,11.43
2019-01-08T19:21:50.741Z,6.12
2019-01-08T19:25:23.421Z,11.53
2019-01-08T19:28:45.515Z,6.30
2019-01-08T19:32:14.278Z,8.10
2019-01-08T19:51:39.856Z,8.13
2019-01-08T19:54:51.138Z,5.73
2019-01-08T19:57:36.593Z,11.93
2019-01-08T20:00:08.085Z,10.43
2019-01-08T20:07:05.869Z,8.40
2019-01-08T20:13:53.533Z,5.40
2019-01-08T20:21:06.796Z,11.73
2019-01-08T20:30:48.750Z,9.60
2019-01-08T20:33:36.691Z,8.90
2019-01-08T20:54:54.968Z,8.40
2019-01-08T20:58:10.205Z,9.23
2019-01-08T21:04:14.702Z,6.53
2019-01-08T21:07:01.388Z,8.73
2019-01-08T21:09:35.566Z,7.77
2019-01-08T21:12:15.574Z,6.03
2019-01-08T21:16:04.446Z,11.67
2019-01-08T21:18:34.444Z,9.40
2019-01-08T21:21:09.437Z,5.53
2019-01-08T21:23:56.926Z,8.00
2019-01-08T21:26:48.085Z,6.87
2019-01-08T21:31:26.930Z,7.83
2019-01-08T21:33:34.460Z,6.25
2019-01-08T21:36:05.008Z,5.90
2019-01-08T21:39:41.724Z,7.40
2019-01-08T21:42:19.093Z,9.17
2019-01-08T21:45:16.201Z,9.37
2019-01-08T21:48:30.916Z,7.83
2019-01-08T21:51:06.946Z,8.60
2019-01-08T21:53:39.929Z,8.33
2019-01-08T21:56:11.703Z,7.37
2019-01-08T21:58:42.190Z,12.90
2019-01-08T22:01:13.119Z,5.63
2019-01-08T22:03:44.445Z,8.33
2019-01-08T22:06:25.254Z,6.30
2019-01-08T22:09:16.824Z,14.00
2019-01-08T22:12:06.749Z,7.67
2019-01-08T22:15:08.449Z,9.63
2019-01-08T22:17:51.666Z,6.30
2019-01-08T22:20:27.295Z,6.30
2019-01-08T22:22:59.835Z,5.43
2019-01-08T22:42:33.054Z,6.60
2019-01-08T22:45:05.761Z,7.40
2019-01-08T22:47:39.891Z,8.70
2019-01-08T22:50:20.030Z,6.97
2019-01-08T22:56:14.537Z,8.70
2019-01-08T22:58:45.344Z,10.40
2019-01-08T23:01:59.007Z,11.80
2019-01-08T23:04:29.481Z,6.10
2019-01-08T23:07:14.168Z,6.67
2019-01-08T23:09:46.478Z,6.00
2019-01-08T23:12:17.882Z,5.30
2019-01-08T23:14:49.557Z,8.80
2019-01-08T23:17:21.022Z,11.10
2019-01-08T23:19:58.031Z,6.73
2019-01-08T23:22:30.828Z,11.50
2019-01-08T23:25:07.362Z,7.60
2019-01-08T23:27:37.738Z,13.73
2019-01-08T23:30:16.820Z,8.10
2019-01-08T23:32:55.652Z,7.67
2019-01-08T23:35:33.453Z,6.80
2019-01-08T23:38:03.993Z,8.03
2019-01-08T23:40:34.290Z,7.30
2019-01-08T23:43:08.739Z,8.30
2019-01-08T23:45:39.757Z,8.10
2019-01-08T23:48:10.438Z,6.00
2019-01-08T23:50:50.097Z,10.23
2019-01-08T23:53:53.183Z,6.27
2019-01-08T23:56:40.752Z,5.47
